createdAt,value
2023-10-10T00:00:57.707Z,98.35
2023-10-10T00:06:07.415Z,98.24
2023-10-10T00:11:15.694Z,98.15
2023-10-10T00:16:27.882Z,98.25
2023-10-10T00:21:29.807Z,97.97
2023-10-10T00:26:31.288Z,98.09
2023-10-10T00:31:32.966Z,98.05
2023-10-10T00:36:36.513Z,97.82
2023-10-10T00:41:50.461Z,97.90
2023-10-10T00:46:56.136Z,97.87
2023-10-10T00:52:02.266Z,97.89
2023-10-10T00:57:09.289Z,97.94
2023-10-10T01:02:15.249Z,97.84
2023-10-10T01:07:20.971Z,98.03
2023-10-10T01:12:29.844Z,97.81
2023-10-10T01:17:31.928Z,97.75
2023-10-10T01:22:41.158Z,97.57
2023-10-10T01:27:44.626Z,97.40
2023-10-10T01:32:51.710Z,97.66
2023-10-10T01:37:56.195Z,97.43
2023-10-10T01:43:00.690Z,97.63
2023-10-10T01:48:09.236Z,97.49
2023-10-10T01:53:11.773Z,97.09
2023-10-10T01:58:14.199Z,97.18
2023-10-10T02:03:19.442Z,97.59
2023-10-10T02:08:23.389Z,97.41
2023-10-10T02:13:26.543Z,97.40
2023-10-10T02:18:45.511Z,97.36
2023-10-10T02:23:47.476Z,97.51
2023-10-10T02:28:49.605Z,97.58
2023-10-10T02:33:56.044Z,97.48
2023-10-10T02:39:10.829Z,97.39
2023-10-10T02:44:12.227Z,97.14
2023-10-10T02:49:15.172Z,97.33
2023-10-10T02:54:35.566Z,97.56
2023-10-10T02:59:40.382Z,97.35
2023-10-10T03:05:07.434Z,97.12
2023-10-10T03:10:38.377Z,97.38
2023-10-10T03:15:56.085Z,97.85
2023-10-10T03:21:07.302Z,97.25
2023-10-10T03:26:19.690Z,97.39
2023-10-10T03:31:26.022Z,97.49
2023-10-10T03:36:33.836Z,97.38
2023-10-10T03:41:38.331Z,97.24
2023-10-10T03:46:58.713Z,97.30
2023-10-10T03:52:18.637Z,97.36
2023-10-10T03:57:38.751Z,97.42
2023-10-10T04:02:58.538Z,97.30
2023-10-10T04:08:18.805Z,97.16
2023-10-10T04:13:38.773Z,97.01
2023-10-10T04:18:58.624Z,97.16
2023-10-10T04:24:18.667Z,97.27
2023-10-10T04:29:38.666Z,97.35
2023-10-10T04:34:58.538Z,97.26
2023-10-10T04:40:18.457Z,97.10
2023-10-10T04:45:38.292Z,96.90
2023-10-10T04:50:58.124Z,97.22
2023-10-10T04:56:18.163Z,97.22
2023-10-10T05:01:38.099Z,97.00
2023-10-10T05:06:58.130Z,97.01
2023-10-10T05:12:17.934Z,96.99
2023-10-10T05:17:37.890Z,97.18
2023-10-10T05:22:57.774Z,97.47
2023-10-10T05:28:01.861Z,97.20
2023-10-10T05:33:03.736Z,97.32
2023-10-10T05:38:06.076Z,97.18
2023-10-10T05:43:10.759Z,97.23
2023-10-10T05:48:15.948Z,97.21
2023-10-10T05:53:18.346Z,97.25
2023-10-10T05:58:21.535Z,97.20
2023-10-10T06:03:23.008Z,97.46
2023-10-10T06:08:26.286Z,97.31
2023-10-10T06:13:30.182Z,97.62
2023-10-10T06:18:32.204Z,97.61
2023-10-10T06:23:35.005Z,97.76
2023-10-10T06:28:49.295Z,97.85
2023-10-10T06:33:51.559Z,97.70
2023-10-10T06:39:06.428Z,97.75
2023-10-10T06:44:26.596Z,98.02
2023-10-10T06:49:44.284Z,97.89
2023-10-10T06:54:46.441Z,97.96
2023-10-10T06:59:49.343Z,97.71
2023-10-10T07:04:53.809Z,97.57
2023-10-10T07:09:59.301Z,98.04
2023-10-10T07:15:02.306Z,97.95
2023-10-10T07:20:03.841Z,98.20
2023-10-10T07:25:09.517Z,98.33
2023-10-10T07:30:20.087Z,98.54
2023-10-10T07:35:26.853Z,98.75
2023-10-10T07:40:32.290Z,99.18
2023-10-10T07:45:44.440Z,99.42
2023-10-10T07:50:49.228Z,98.91
2023-10-10T07:55:54.354Z,98.26
2023-10-10T08:01:09.368Z,98.75
2023-10-10T08:06:11.151Z,98.83
2023-10-10T08:11:25.647Z,98.87
2023-10-10T08:16:30.395Z,98.99
2023-10-10T08:21:51.006Z,98.93
2023-10-10T08:26:53.129Z,98.54
2023-10-10T08:31:54.644Z,98.63
2023-10-10T08:37:04.883Z,98.95
2023-10-10T08:42:06.925Z,99.02
2023-10-10T08:47:09.193Z,99.34
2023-10-10T08:52:10.668Z,99.55
2023-10-10T08:57:12.456Z,99.49
2023-10-10T09:02:19.003Z,99.04
2023-10-10T09:07:32.084Z,99.01
2023-10-10T09:12:35.230Z,98.91
2023-10-10T09:17:40.213Z,99.03
2023-10-10T09:22:48.207Z,98.80
2023-10-10T09:28:07.473Z,98.54
2023-10-10T09:33:23.613Z,98.88
2023-10-10T09:38:27.968Z,98.67
2023-10-10T09:43:36.568Z,98.79
2023-10-10T09:48:41.250Z,99.25
2023-10-10T09:53:48.439Z,99.17
2023-10-10T09:58:54.161Z,98.36
2023-10-10T10:04:00.804Z,98.47
2023-10-10T10:09:20.635Z,98.80
2023-10-10T10:14:48.239Z,98.37
2023-10-10T10:19:50.231Z,97.80
2023-10-10T10:25:13.310Z,97.65
2023-10-10T10:30:19.329Z,97.66
2023-10-10T10:35:24.918Z,98.27
2023-10-10T10:40:42.090Z,98.18
2023-10-10T10:45:52.620Z,98.48
2023-10-10T10:51:02.856Z,98.47
2023-10-10T10:56:17.808Z,97.58
2023-10-10T11:01:19.566Z,98.21
2023-10-10T11:06:21.879Z,97.90
2023-10-10T11:11:25.342Z,98.04
2023-10-10T11:16:38.263Z,97.64
2023-10-10T11:21:48.489Z,96.98
2023-10-10T11:26:50.074Z,96.56
2023-10-10T11:32:07.354Z,96.52
2023-10-10T11:37:16.065Z,97.54
2023-10-10T11:42:24.088Z,96.91
2023-10-10T11:47:27.455Z,96.76
2023-10-10T11:52:29.606Z,96.44
2023-10-10T11:57:31.110Z,96.88
2023-10-10T12:02:40.940Z,97.05
2023-10-10T12:07:42.497Z,96.76
2023-10-10T12:12:46.149Z,97.20
2023-10-10T12:17:48.953Z,96.80
2023-10-10T12:22:50.467Z,95.98
2023-10-10T12:27:55.243Z,96.48
2023-10-10T12:32:57.575Z,96.10
2023-10-10T12:38:02.535Z,96.31
2023-10-10T12:43:04.836Z,96.37
2023-10-10T12:48:14.928Z,96.43
2023-10-10T12:53:16.872Z,96.09
2023-10-10T12:58:21.300Z,95.71
2023-10-10T13:03:24.926Z,95.62
2023-10-10T13:08:39.301Z,94.77
2023-10-10T13:13:46.761Z,95.78
2023-10-10T13:18:48.883Z,95.75
2023-10-10T13:23:51.061Z,97.29
2023-10-10T13:28:52.985Z,96.79
2023-10-10T13:33:54.410Z,96.63
2023-10-10T13:39:00.171Z,97.22
2023-10-10T13:44:01.635Z,97.68
2023-10-10T13:49:09.694Z,97.50
2023-10-10T13:54:14.517Z,97.42
2023-10-10T13:59:18.228Z,97.46
2023-10-10T14:04:28.549Z,97.53
2023-10-10T14:09:36.121Z,97.37
2023-10-10T14:14:45.735Z,97.06
2023-10-10T14:19:47.130Z,96.75
2023-10-10T14:24:51.028Z,96.80
2023-10-10T14:29:52.757Z,97.11
2023-10-10T14:34:54.147Z,97.07
2023-10-10T14:39:56.586Z,97.12
2023-10-10T14:44:58.025Z,96.88
2023-10-10T14:50:11.877Z,96.42
2023-10-10T14:55:25.040Z,96.22
2023-10-10T15:00:30.473Z,96.59
2023-10-10T15:05:33.885Z,96.79
2023-10-10T15:10:41.848Z,97.17
2023-10-10T15:15:46.878Z,97.57
2023-10-10T15:20:49.843Z,97.38
2023-10-10T15:26:06.161Z,96.98
2023-10-10T15:31:08.543Z,97.21
2023-10-10T15:36:13.086Z,97.48
2023-10-10T15:41:18.934Z,97.57
2023-10-10T15:46:20.557Z,97.41
2023-10-10T15:51:21.988Z,97.37
2023-10-10T15:56:29.411Z,97.75
2023-10-10T16:01:31.666Z,97.63
2023-10-10T16:06:36.997Z,97.87
2023-10-10T16:11:39.239Z,97.89
2023-10-10T16:16:45.087Z,97.83
2023-10-10T16:21:46.848Z,97.72
2023-10-10T16:26:49.574Z,97.71
2023-10-10T16:31:51.053Z,97.61
2023-10-10T16:36:52.441Z,97.94
2023-10-10T16:41:58.355Z,97.84
2023-10-10T16:47:01.981Z,97.76
2023-10-10T16:52:06.506Z,98.03
2023-10-10T16:57:10.846Z,97.89
2023-10-10T17:02:12.895Z,97.98
2023-10-10T17:07:14.331Z,97.92
2023-10-10T17:12:18.666Z,97.71
2023-10-10T17:17:20.023Z,97.82
2023-10-10T17:22:22.162Z,98.00
2023-10-10T17:27:23.749Z,98.14
2023-10-10T17:32:25.240Z,97.76
2023-10-10T17:37:26.691Z,97.80
2023-10-10T17:42:29.166Z,97.67
2023-10-10T17:47:30.582Z,97.77
2023-10-10T17:52:31.994Z,98.06
2023-10-10T17:57:33.920Z,98.51
2023-10-10T18:02:35.439Z,98.43
2023-10-10T18:07:36.950Z,98.62
2023-10-10T18:12:39.951Z,98.79
2023-10-10T18:17:41.440Z,98.45
2023-10-10T18:22:46.866Z,98.40
2023-10-10T18:27:48.805Z,98.55
2023-10-10T18:32:51.068Z,98.64
2023-10-10T18:37:54.104Z,98.60
2023-10-10T18:42:55.553Z,98.71
2023-10-10T18:47:57.554Z,98.60
2023-10-10T18:52:59.089Z,98.68
2023-10-10T18:58:04.193Z,98.50
2023-10-10T19:03:08.202Z,98.36
2023-10-10T19:08:09.953Z,98.32
2023-10-10T19:13:11.326Z,98.39
2023-10-10T19:18:13.741Z,98.34
2023-10-10T19:23:16.005Z,98.25
2023-10-10T19:28:17.846Z,98.44
2023-10-10T19:33:23.156Z,98.55
2023-10-10T19:38:27.996Z,98.58
2023-10-10T19:43:29.999Z,98.76
2023-10-10T19:48:31.567Z,98.73
2023-10-10T19:53:33.976Z,98.73
2023-10-10T19:58:35.518Z,98.52
2023-10-10T20:03:37.246Z,98.66
2023-10-10T20:08:38.882Z,98.64
2023-10-10T20:13:43.452Z,98.71
2023-10-10T20:18:45.397Z,98.59
2023-10-10T20:23:47.156Z,98.56
2023-10-10T20:28:49.148Z,98.76
2023-10-10T20:33:51.595Z,98.76
2023-10-10T20:38:53.831Z,98.80
2023-10-10T20:43:55.265Z,98.97
2023-10-10T20:48:57.337Z,99.05
2023-10-10T20:53:59.227Z,99.11
2023-10-10T20:59:00.757Z,98.82
2023-10-10T21:04:02.177Z,98.72
2023-10-10T21:09:04.053Z,98.69
2023-10-10T21:14:06.767Z,98.58
2023-10-10T21:19:10.471Z,98.62
2023-10-10T21:24:11.981Z,98.56
2023-10-10T21:29:13.396Z,98.52
2023-10-10T21:34:14.952Z,98.34
2023-10-10T21:39:19.728Z,98.28
2023-10-10T21:44:22.181Z,98.04
2023-10-10T21:49:23.826Z,98.10
2023-10-10T21:54:25.344Z,98.24
2023-10-10T21:59:27.042Z,98.21
2023-10-10T22:04:28.714Z,98.03
2023-10-10T22:09:33.621Z,97.68
2023-10-10T22:14:36.681Z,97.84
2023-10-10T22:19:38.150Z,97.97
2023-10-10T22:24:39.578Z,97.93
2023-10-10T22:29:40.979Z,97.92
2023-10-10T22:34:42.427Z,97.75
2023-10-10T22:39:43.811Z,98.21
2023-10-10T22:44:45.820Z,98.26
2023-10-10T22:49:47.246Z,98.28
2023-10-10T22:54:48.660Z,98.08
2023-10-10T22:59:50.154Z,98.19
2023-10-10T23:04:51.556Z,98.11
2023-10-10T23:09:54.292Z,98.39
2023-10-10T23:14:57.388Z,98.37
2023-10-10T23:19:58.948Z,98.19
2023-10-10T23:25:02.014Z,98.11
2023-10-10T23:30:06.103Z,98.47
2023-10-10T23:35:09.454Z,98.13
2023-10-10T23:40:16.342Z,98.32
2023-10-10T23:45:24.795Z,98.48
2023-10-10T23:50:27.000Z,98.46
2023-10-10T23:55:30.339Z,98.53
